sensor_id;sensor_type;location;lat;lon;timestamp;pressure;altitude;pressure_sealevel;temperature;humidity
12536;BME280;6334;48.696;2.114;2024-02-04T00:01:10;101472.48;;;9.67;90.22
12536;BME280;6334;48.696;2.114;2024-02-04T00:03:41;101473.48;;;9.61;89.95
12536;BME280;6334;48.696;2.114;2024-02-04T00:06:10;101474.80;;;9.57;90.25
12536;BME280;6334;48.696;2.114;2024-02-04T00:08:40;101480.19;;;9.34;91.12
12536;BME280;6334;48.696;2.114;2024-02-04T00:11:11;101487.19;;;9.36;90.79
12536;BME280;6334;48.696;2.114;2024-02-04T00:13:43;101496.91;;;9.61;90.13
12536;BME280;6334;48.696;2.114;2024-02-04T00:16:13;101493.05;;;9.55;90.48
12536;BME280;6334;48.696;2.114;2024-02-04T00:18:42;101495.39;;;9.71;89.90
12536;BME280;6334;48.696;2.114;2024-02-04T00:21:12;101495.94;;;9.64;90.40
12536;BME280;6334;48.696;2.114;2024-02-04T00:23:43;101493.12;;;9.76;89.60
12536;BME280;6334;48.696;2.114;2024-02-04T00:26:13;101492.15;;;9.66;89.89
12536;BME280;6334;48.696;2.114;2024-02-04T00:28:44;101496.66;;;9.61;90.23
12536;BME280;6334;48.696;2.114;2024-02-04T00:31:14;101498.66;;;9.68;89.52
12536;BME280;6334;48.696;2.114;2024-02-04T00:33:43;101505.22;;;9.61;90.10
12536;BME280;6334;48.696;2.114;2024-02-04T00:36:14;101498.39;;;9.71;89.92
12536;BME280;6334;48.696;2.114;2024-02-04T00:38:46;101498.95;;;9.54;90.29
12536;BME280;6334;48.696;2.114;2024-02-04T00:41:17;101498.88;;;9.66;90.73
12536;BME280;6334;48.696;2.114;2024-02-04T00:43:47;101497.75;;;9.73;90.23
12536;BME280;6334;48.696;2.114;2024-02-04T00:46:19;101497.50;;;9.73;90.55
12536;BME280;6334;48.696;2.114;2024-02-04T00:48:49;101504.11;;;9.61;90.84
12536;BME280;6334;48.696;2.114;2024-02-04T00:51:21;101498.38;;;9.78;90.44
12536;BME280;6334;48.696;2.114;2024-02-04T00:53:50;101494.63;;;9.49;91.95
12536;BME280;6334;48.696;2.114;2024-02-04T00:56:21;101498.33;;;9.72;90.79
12536;BME280;6334;48.696;2.114;2024-02-04T00:58:53;101497.30;;;9.83;90.30
12536;BME280;6334;48.696;2.114;2024-02-04T01:01:23;101488.35;;;9.62;91.05
12536;BME280;6334;48.696;2.114;2024-02-04T01:03:52;101494.45;;;9.74;90.23
12536;BME280;6334;48.696;2.114;2024-02-04T01:06:22;101497.55;;;9.54;91.00
12536;BME280;6334;48.696;2.114;2024-02-04T01:08:58;101499.40;;;9.57;91.75
12536;BME280;6334;48.696;2.114;2024-02-04T01:11:29;101494.36;;;9.64;90.99
12536;BME280;6334;48.696;2.114;2024-02-04T01:13:59;101494.06;;;9.66;91.45
12536;BME280;6334;48.696;2.114;2024-02-04T01:16:29;101493.78;;;9.70;91.21
12536;BME280;6334;48.696;2.114;2024-02-04T01:19:04;101493.13;;;9.48;92.16
12536;BME280;6334;48.696;2.114;2024-02-04T01:21:35;101486.45;;;9.41;92.67
12536;BME280;6334;48.696;2.114;2024-02-04T01:24:07;101487.81;;;9.29;93.77
12536;BME280;6334;48.696;2.114;2024-02-04T01:26:37;101479.45;;;9.51;92.47
12536;BME280;6334;48.696;2.114;2024-02-04T01:29:08;101480.63;;;9.56;92.11
12536;BME280;6334;48.696;2.114;2024-02-04T01:31:39;101485.17;;;9.59;92.13
12536;BME280;6334;48.696;2.114;2024-02-04T01:34:11;101486.47;;;9.59;92.28
12536;BME280;6334;48.696;2.114;2024-02-04T01:36:42;101480.77;;;9.65;91.63
12536;BME280;6334;48.696;2.114;2024-02-04T01:39:12;101472.64;;;9.51;92.19
12536;BME280;6334;48.696;2.114;2024-02-04T01:41:43;101473.76;;;9.57;92.45
12536;BME280;6334;48.696;2.114;2024-02-04T01:44:14;101469.55;;;9.77;91.26
12536;BME280;6334;48.696;2.114;2024-02-04T01:46:44;101467.50;;;9.56;91.81
12536;BME280;6334;48.696;2.114;2024-02-04T01:49:14;101468.46;;;9.49;92.38
12536;BME280;6334;48.696;2.114;2024-02-04T01:51:45;101471.09;;;9.58;91.79
12536;BME280;6334;48.696;2.114;2024-02-04T01:54:16;101467.85;;;9.47;91.79
12536;BME280;6334;48.696;2.114;2024-02-04T01:56:50;101460.21;;;9.58;91.41
12536;BME280;6334;48.696;2.114;2024-02-04T01:59:20;101460.52;;;9.56;91.79
12536;BME280;6334;48.696;2.114;2024-02-04T02:01:50;101445.70;;;9.48;91.78
12536;BME280;6334;48.696;2.114;2024-02-04T02:04:27;101441.13;;;9.55;91.16
12536;BME280;6334;48.696;2.114;2024-02-04T02:06:58;101435.52;;;9.81;90.44
12536;BME280;6334;48.696;2.114;2024-02-04T02:09:28;101437.59;;;9.56;91.63
12536;BME280;6334;48.696;2.114;2024-02-04T02:12:12;101432.27;;;9.56;91.76
12536;BME280;6334;48.696;2.114;2024-02-04T02:14:42;101423.98;;;9.70;91.48
12536;BME280;6334;48.696;2.114;2024-02-04T02:17:14;101424.70;;;9.46;92.25
12536;BME280;6334;48.696;2.114;2024-02-04T02:22:37;101414.02;;;9.47;91.76
12536;BME280;6334;48.696;2.114;2024-02-04T02:25:04;101415.09;;;9.42;91.95
12536;BME280;6334;48.696;2.114;2024-02-04T02:27:33;101414.52;;;9.42;92.64
12536;BME280;6334;48.696;2.114;2024-02-04T02:30:05;101405.73;;;9.26;93.26
12536;BME280;6334;48.696;2.114;2024-02-04T02:32:36;101403.86;;;9.33;92.82
12536;BME280;6334;48.696;2.114;2024-02-04T02:35:06;101406.59;;;9.01;94.29
12536;BME280;6334;48.696;2.114;2024-02-04T02:40:32;101415.44;;;9.41;92.81
12536;BME280;6334;48.696;2.114;2024-02-04T02:43:00;101414.55;;;9.44;92.58
12536;BME280;6334;48.696;2.114;2024-02-04T02:45:33;101419.53;;;9.49;92.43
12536;BME280;6334;48.696;2.114;2024-02-04T02:48:03;101417.95;;;9.48;92.21
12536;BME280;6334;48.696;2.114;2024-02-04T02:50:32;101415.90;;;9.28;92.87
12536;BME280;6334;48.696;2.114;2024-02-04T02:53:02;101415.69;;;9.15;93.15
12536;BME280;6334;48.696;2.114;2024-02-04T02:55:33;101411.77;;;9.24;92.76
12536;BME280;6334;48.696;2.114;2024-02-04T02:58:03;101408.56;;;9.32;92.84
12536;BME280;6334;48.696;2.114;2024-02-04T03:00:35;101408.87;;;9.30;93.08
12536;BME280;6334;48.696;2.114;2024-02-04T03:03:05;101399.79;;;9.33;93.65
12536;BME280;6334;48.696;2.114;2024-02-04T03:05:36;101401.00;;;9.20;93.93
12536;BME280;6334;48.696;2.114;2024-02-04T03:08:05;101401.66;;;9.20;94.12
12536;BME280;6334;48.696;2.114;2024-02-04T03:10:35;101395.47;;;9.45;93.09
12536;BME280;6334;48.696;2.114;2024-02-04T03:13:06;101396.52;;;9.43;92.89
12536;BME280;6334;48.696;2.114;2024-02-04T03:15:37;101400.40;;;9.41;93.43
12536;BME280;6334;48.696;2.114;2024-02-04T03:18:07;101395.47;;;9.50;92.65
12536;BME280;6334;48.696;2.114;2024-02-04T03:20:38;101401.45;;;9.28;93.41
12536;BME280;6334;48.696;2.114;2024-02-04T03:23:10;101398.27;;;9.49;92.67
12536;BME280;6334;48.696;2.114;2024-02-04T03:25:41;101402.66;;;9.26;94.03
12536;BME280;6334;48.696;2.114;2024-02-04T03:28:12;101396.55;;;9.46;92.87
12536;BME280;6334;48.696;2.114;2024-02-04T03:30:42;101398.91;;;9.35;93.80
12536;BME280;6334;48.696;2.114;2024-02-04T03:33:13;101398.89;;;9.18;94.43
12536;BME280;6334;48.696;2.114;2024-02-04T03:35:48;101400.95;;;9.33;93.89
12536;BME280;6334;48.696;2.114;2024-02-04T03:38:19;101403.36;;;9.56;92.85
12536;BME280;6334;48.696;2.114;2024-02-04T03:40:49;101409.70;;;9.41;93.65
12536;BME280;6334;48.696;2.114;2024-02-04T03:43:19;101410.09;;;9.40;93.61
12536;BME280;6334;48.696;2.114;2024-02-04T03:45:51;101417.95;;;9.54;93.39
12536;BME280;6334;48.696;2.114;2024-02-04T03:48:20;101426.70;;;9.46;93.65
12536;BME280;6334;48.696;2.114;2024-02-04T03:50:51;101423.74;;;9.52;93.28
12536;BME280;6334;48.696;2.114;2024-02-04T03:53:23;101415.44;;;9.47;93.39
12536;BME280;6334;48.696;2.114;2024-02-04T03:55:53;101419.45;;;9.31;94.34
12536;BME280;6334;48.696;2.114;2024-02-04T03:58:24;101411.83;;;9.23;94.64
12536;BME280;6334;48.696;2.114;2024-02-04T04:00:58;101407.48;;;9.38;93.90
12536;BME280;6334;48.696;2.114;2024-02-04T04:03:27;101412.55;;;9.42;93.96
12536;BME280;6334;48.696;2.114;2024-02-04T04:05:57;101412.88;;;9.55;93.21
12536;BME280;6334;48.696;2.114;2024-02-04T04:08:27;101414.43;;;9.24;94.63
12536;BME280;6334;48.696;2.114;2024-02-04T04:10:59;101423.60;;;9.37;93.61
12536;BME280;6334;48.696;2.114;2024-02-04T04:13:29;101417.65;;;9.45;93.28
12536;BME280;6334;48.696;2.114;2024-02-04T04:16:01;101418.37;;;9.48;93.25
12536;BME280;6334;48.696;2.114;2024-02-04T04:18:32;101418.36;;;9.32;94.42
12536;BME280;6334;48.696;2.114;2024-02-04T04:21:01;101419.20;;;9.38;93.81
12536;BME280;6334;48.696;2.114;2024-02-04T04:23:32;101424.01;;;9.25;93.79
12536;BME280;6334;48.696;2.114;2024-02-04T04:26:04;101419.38;;;9.22;94.31
12536;BME280;6334;48.696;2.114;2024-02-04T04:28:34;101418.50;;;9.53;93.40
12536;BME280;6334;48.696;2.114;2024-02-04T04:31:04;101419.14;;;9.56;93.42
12536;BME280;6334;48.696;2.114;2024-02-04T04:33:35;101409.25;;;9.23;94.83
12536;BME280;6334;48.696;2.114;2024-02-04T04:36:04;101396.69;;;9.37;94.16
12536;BME280;6334;48.696;2.114;2024-02-04T04:38:34;101407.17;;;9.28;94.66
12536;BME280;6334;48.696;2.114;2024-02-04T04:41:04;101402.83;;;9.54;93.53
12536;BME280;6334;48.696;2.114;2024-02-04T04:43:36;101410.51;;;9.44;93.77
12536;BME280;6334;48.696;2.114;2024-02-04T04:46:06;101419.12;;;9.42;93.98
12536;BME280;6334;48.696;2.114;2024-02-04T04:48:41;101415.21;;;9.43;93.98
12536;BME280;6334;48.696;2.114;2024-02-04T04:51:11;101409.13;;;9.09;95.26
12536;BME280;6334;48.696;2.114;2024-02-04T04:53:41;101413.78;;;9.15;95.34
12536;BME280;6334;48.696;2.114;2024-02-04T04:56:12;101407.73;;;9.25;95.28
12536;BME280;6334;48.696;2.114;2024-02-04T04:58:42;101403.91;;;9.20;95.94
12536;BME280;6334;48.696;2.114;2024-02-04T05:01:12;101410.41;;;9.17;95.76
12536;BME280;6334;48.696;2.114;2024-02-04T05:03:44;101418.53;;;9.32;95.17
12536;BME280;6334;48.696;2.114;2024-02-04T05:06:14;101421.55;;;9.28;95.87
12536;BME280;6334;48.696;2.114;2024-02-04T05:08:46;101426.41;;;9.21;95.70
12536;BME280;6334;48.696;2.114;2024-02-04T05:11:17;101432.57;;;9.37;95.58
12536;BME280;6334;48.696;2.114;2024-02-04T05:13:48;101433.13;;;9.47;94.57
12536;BME280;6334;48.696;2.114;2024-02-04T05:16:18;101440.52;;;9.35;95.63
12536;BME280;6334;48.696;2.114;2024-02-04T05:18:49;101438.30;;;9.32;95.45
12536;BME280;6334;48.696;2.114;2024-02-04T05:21:19;101435.62;;;9.21;95.89
12536;BME280;6334;48.696;2.114;2024-02-04T05:23:52;101425.92;;;9.10;96.62
12536;BME280;6334;48.696;2.114;2024-02-04T05:26:23;101424.92;;;9.31;95.69
12536;BME280;6334;48.696;2.114;2024-02-04T05:28:53;101430.39;;;9.21;96.10
12536;BME280;6334;48.696;2.114;2024-02-04T05:31:23;101428.25;;;9.43;95.02
12536;BME280;6334;48.696;2.114;2024-02-04T05:33:55;101442.20;;;9.50;94.35
12536;BME280;6334;48.696;2.114;2024-02-04T05:36:25;101438.21;;;9.32;95.28
12536;BME280;6334;48.696;2.114;2024-02-04T05:38:55;101438.66;;;9.34;95.06
12536;BME280;6334;48.696;2.114;2024-02-04T05:41:25;101435.95;;;9.58;93.85
12536;BME280;6334;48.696;2.114;2024-02-04T05:43:56;101435.67;;;9.50;94.12
12536;BME280;6334;48.696;2.114;2024-02-04T05:46:27;101429.36;;;9.50;94.65
12536;BME280;6334;48.696;2.114;2024-02-04T05:48:58;101433.68;;;9.39;95.18
12536;BME280;6334;48.696;2.114;2024-02-04T05:51:31;101428.78;;;9.45;95.07
12536;BME280;6334;48.696;2.114;2024-02-04T05:53:59;101431.71;;;9.58;94.27
12536;BME280;6334;48.696;2.114;2024-02-04T05:56:29;101434.81;;;9.44;95.12
12536;BME280;6334;48.696;2.114;2024-02-04T05:58:59;101426.36;;;9.22;95.79
12536;BME280;6334;48.696;2.114;2024-02-04T06:01:29;101428.68;;;9.22;96.67
12536;BME280;6334;48.696;2.114;2024-02-04T06:03:59;101433.09;;;9.51;94.68
12536;BME280;6334;48.696;2.114;2024-02-04T06:06:31;101426.12;;;9.33;95.49
12536;BME280;6334;48.696;2.114;2024-02-04T06:09:00;101429.16;;;9.38;95.32
12536;BME280;6334;48.696;2.114;2024-02-04T06:11:31;101425.91;;;9.21;95.70
12536;BME280;6334;48.696;2.114;2024-02-04T06:14:01;101423.91;;;9.35;95.04
12536;BME280;6334;48.696;2.114;2024-02-04T06:16:31;101427.89;;;9.36;94.98
12536;BME280;6334;48.696;2.114;2024-02-04T06:19:01;101428.81;;;9.20;96.10
12536;BME280;6334;48.696;2.114;2024-02-04T06:21:31;101427.94;;;9.34;95.41
12536;BME280;6334;48.696;2.114;2024-02-04T06:24:01;101430.22;;;9.15;95.87
12536;BME280;6334;48.696;2.114;2024-02-04T06:26:31;101431.03;;;9.18;96.43
12536;BME280;6334;48.696;2.114;2024-02-04T06:29:04;101434.22;;;9.27;96.12
12536;BME280;6334;48.696;2.114;2024-02-04T06:31:35;101435.84;;;9.39;95.77
12536;BME280;6334;48.696;2.114;2024-02-04T06:34:06;101442.34;;;9.46;95.60
12536;BME280;6334;48.696;2.114;2024-02-04T06:36:36;101446.64;;;9.51;95.19
12536;BME280;6334;48.696;2.114;2024-02-04T06:39:06;101448.94;;;9.43;95.34
12536;BME280;6334;48.696;2.114;2024-02-04T06:41:36;101445.59;;;9.46;95.49
12536;BME280;6334;48.696;2.114;2024-02-04T06:44:07;101446.52;;;9.44;95.68
12536;BME280;6334;48.696;2.114;2024-02-04T06:46:37;101450.52;;;9.54;95.57
12536;BME280;6334;48.696;2.114;2024-02-04T06:49:08;101449.57;;;9.42;96.07
12536;BME280;6334;48.696;2.114;2024-02-04T06:51:39;101449.09;;;9.32;96.86
12536;BME280;6334;48.696;2.114;2024-02-04T06:54:10;101444.00;;;9.30;96.99
12536;BME280;6334;48.696;2.114;2024-02-04T06:56:40;101435.16;;;9.28;97.24
12536;BME280;6334;48.696;2.114;2024-02-04T06:59:10;101429.75;;;9.17;97.59
12536;BME280;6334;48.696;2.114;2024-02-04T07:01:42;101428.33;;;9.33;96.73
12536;BME280;6334;48.696;2.114;2024-02-04T07:04:12;101435.81;;;9.49;95.93
12536;BME280;6334;48.696;2.114;2024-02-04T07:06:42;101435.62;;;9.40;96.17
12536;BME280;6334;48.696;2.114;2024-02-04T07:09:13;101437.92;;;9.45;95.91
12536;BME280;6334;48.696;2.114;2024-02-04T07:11:43;101436.95;;;9.52;95.06
12536;BME280;6334;48.696;2.114;2024-02-04T07:14:14;101441.34;;;9.15;97.32
12536;BME280;6334;48.696;2.114;2024-02-04T07:16:44;101441.95;;;9.38;96.19
12536;BME280;6334;48.696;2.114;2024-02-04T07:19:14;101444.48;;;9.44;96.01
12536;BME280;6334;48.696;2.114;2024-02-04T07:21:44;101439.21;;;9.31;96.59
12536;BME280;6334;48.696;2.114;2024-02-04T07:24:16;101436.00;;;9.34;96.39
12536;BME280;6334;48.696;2.114;2024-02-04T07:26:47;101440.63;;;9.42;95.69
12536;BME280;6334;48.696;2.114;2024-02-04T07:29:17;101430.75;;;9.17;96.45
12536;BME280;6334;48.696;2.114;2024-02-04T07:31:50;101432.12;;;9.30;96.49
12536;BME280;6334;48.696;2.114;2024-02-04T07:34:21;101426.70;;;8.99;96.93
12536;BME280;6334;48.696;2.114;2024-02-04T07:36:51;101434.87;;;9.00;97.54
12536;BME280;6334;48.696;2.114;2024-02-04T07:39:22;101438.45;;;9.21;97.05
12536;BME280;6334;48.696;2.114;2024-02-04T07:41:52;101442.38;;;9.23;97.27
12536;BME280;6334;48.696;2.114;2024-02-04T07:44:23;101447.34;;;9.11;97.39
12536;BME280;6334;48.696;2.114;2024-02-04T07:46:53;101452.44;;;9.27;96.63
12536;BME280;6334;48.696;2.114;2024-02-04T07:49:24;101452.69;;;9.29;97.10
12536;BME280;6334;48.696;2.114;2024-02-04T07:51:54;101449.52;;;9.07;97.68
12536;BME280;6334;48.696;2.114;2024-02-04T07:54:24;101448.97;;;9.25;97.79
12536;BME280;6334;48.696;2.114;2024-02-04T07:56:57;101445.03;;;9.37;96.75
12536;BME280;6334;48.696;2.114;2024-02-04T07:59:28;101450.23;;;9.42;96.45
12536;BME280;6334;48.696;2.114;2024-02-04T08:01:58;101449.21;;;9.40;96.54
12536;BME280;6334;48.696;2.114;2024-02-04T08:04:29;101446.03;;;9.22;97.30
12536;BME280;6334;48.696;2.114;2024-02-04T08:07:00;101438.40;;;9.07;98.02
12536;BME280;6334;48.696;2.114;2024-02-04T08:09:31;101452.45;;;9.24;98.17
12536;BME280;6334;48.696;2.114;2024-02-04T08:12:01;101452.48;;;9.27;97.74
12536;BME280;6334;48.696;2.114;2024-02-04T08:14:32;101453.52;;;9.13;97.87
12536;BME280;6334;48.696;2.114;2024-02-04T08:17:01;101450.06;;;9.30;97.47
12536;BME280;6334;48.696;2.114;2024-02-04T08:19:31;101446.00;;;9.36;97.66
12536;BME280;6334;48.696;2.114;2024-02-04T08:22:00;101444.22;;;9.13;98.10
12536;BME280;6334;48.696;2.114;2024-02-04T08:24:30;101451.33;;;9.27;97.45
12536;BME280;6334;48.696;2.114;2024-02-04T08:27:00;101452.58;;;9.32;97.40
12536;BME280;6334;48.696;2.114;2024-02-04T08:29:30;101452.38;;;9.44;97.16
12536;BME280;6334;48.696;2.114;2024-02-04T08:32:00;101456.21;;;9.35;96.87
12536;BME280;6334;48.696;2.114;2024-02-04T08:34:31;101452.30;;;9.36;96.79
12536;BME280;6334;48.696;2.114;2024-02-04T08:37:01;101449.94;;;9.49;95.94
12536;BME280;6334;48.696;2.114;2024-02-04T08:39:32;101456.11;;;9.72;95.20
12536;BME280;6334;48.696;2.114;2024-02-04T08:42:02;101453.81;;;9.48;95.85
12536;BME280;6334;48.696;2.114;2024-02-04T08:44:33;101456.83;;;9.44;96.61
12536;BME280;6334;48.696;2.114;2024-02-04T08:47:04;101460.71;;;9.64;95.72
12536;BME280;6334;48.696;2.114;2024-02-04T08:49:33;101459.91;;;9.48;96.74
12536;BME280;6334;48.696;2.114;2024-02-04T08:52:04;101461.59;;;9.50;96.06
12536;BME280;6334;48.696;2.114;2024-02-04T08:54:33;101460.10;;;9.68;95.94
12536;BME280;6334;48.696;2.114;2024-02-04T08:57:04;101458.91;;;9.48;96.78
12536;BME280;6334;48.696;2.114;2024-02-04T08:59:34;101466.47;;;9.65;95.95
12536;BME280;6334;48.696;2.114;2024-02-04T09:02:04;101469.66;;;9.57;96.44
12536;BME280;6334;48.696;2.114;2024-02-04T09:04:35;101470.10;;;9.64;95.98
12536;BME280;6334;48.696;2.114;2024-02-04T09:07:06;101469.10;;;9.52;96.60
12536;BME280;6334;48.696;2.114;2024-02-04T09:09:35;101475.64;;;9.79;96.00
12536;BME280;6334;48.696;2.114;2024-02-04T09:12:05;101473.87;;;9.61;96.43
12536;BME280;6334;48.696;2.114;2024-02-04T09:14:35;101476.94;;;9.54;96.65
12536;BME280;6334;48.696;2.114;2024-02-04T09:17:05;101473.70;;;9.66;96.28
12536;BME280;6334;48.696;2.114;2024-02-04T09:19:34;101473.67;;;9.59;96.87
12536;BME280;6334;48.696;2.114;2024-02-04T09:22:05;101478.59;;;9.83;96.00
12536;BME280;6334;48.696;2.114;2024-02-04T09:24:36;101482.31;;;9.80;95.50
12536;BME280;6334;48.696;2.114;2024-02-04T09:27:06;101483.98;;;9.75;95.79
12536;BME280;6334;48.696;2.114;2024-02-04T09:29:37;101471.29;;;9.77;94.60
12536;BME280;6334;48.696;2.114;2024-02-04T09:32:06;101481.20;;;9.79;94.66
12536;BME280;6334;48.696;2.114;2024-02-04T09:34:36;101479.58;;;9.70;94.60
12536;BME280;6334;48.696;2.114;2024-02-04T09:37:05;101482.29;;;9.73;95.25
12536;BME280;6334;48.696;2.114;2024-02-04T09:39:35;101482.89;;;9.80;94.98
12536;BME280;6334;48.696;2.114;2024-02-04T09:42:04;101478.16;;;9.75;95.08
12536;BME280;6334;48.696;2.114;2024-02-04T09:44:34;101479.05;;;9.78;94.72
12536;BME280;6334;48.696;2.114;2024-02-04T09:47:09;101473.53;;;9.82;94.80
12536;BME280;6334;48.696;2.114;2024-02-04T09:49:39;101474.03;;;10.06;93.58
12536;BME280;6334;48.696;2.114;2024-02-04T09:52:09;101475.95;;;10.01;93.38
12536;BME280;6334;48.696;2.114;2024-02-04T09:54:50;101472.58;;;9.97;94.06
12536;BME280;6334;48.696;2.114;2024-02-04T09:57:19;101476.36;;;9.82;94.05
12536;BME280;6334;48.696;2.114;2024-02-04T09:59:49;101469.47;;;9.77;94.74
12536;BME280;6334;48.696;2.114;2024-02-04T10:02:19;101466.44;;;9.86;94.17
12536;BME280;6334;48.696;2.114;2024-02-04T10:04:49;101463.27;;;9.91;93.72
12536;BME280;6334;48.696;2.114;2024-02-04T10:07:19;101454.89;;;9.76;93.53
12536;BME280;6334;48.696;2.114;2024-02-04T10:09:48;101453.00;;;9.83;93.18
12536;BME280;6334;48.696;2.114;2024-02-04T10:12:19;101450.95;;;9.85;93.48
12536;BME280;6334;48.696;2.114;2024-02-04T10:14:49;101452.42;;;9.77;93.58
12536;BME280;6334;48.696;2.114;2024-02-04T10:17:18;101449.74;;;9.47;95.63
12536;BME280;6334;48.696;2.114;2024-02-04T10:19:48;101459.27;;;9.72;94.36
12536;BME280;6334;48.696;2.114;2024-02-04T10:22:17;101456.36;;;9.73;94.29
12536;BME280;6334;48.696;2.114;2024-02-04T10:24:49;101462.48;;;9.78;93.65
12536;BME280;6334;48.696;2.114;2024-02-04T10:27:19;101462.76;;;9.56;93.10
12536;BME280;6334;48.696;2.114;2024-02-04T10:29:48;101466.33;;;9.44;94.01
12536;BME280;6334;48.696;2.114;2024-02-04T10:32:21;101466.79;;;9.93;92.64
12536;BME280;6334;48.696;2.114;2024-02-04T10:34:47;101472.88;;;9.96;92.72
12536;BME280;6334;48.696;2.114;2024-02-04T10:37:17;101474.31;;;9.98;92.63
12536;BME280;6334;48.696;2.114;2024-02-04T10:39:48;101475.17;;;9.58;93.69
12536;BME280;6334;48.696;2.114;2024-02-04T10:42:20;101477.98;;;9.87;93.33
12536;BME280;6334;48.696;2.114;2024-02-04T10:44:49;101481.81;;;9.64;93.65
12536;BME280;6334;48.696;2.114;2024-02-04T10:47:22;101476.44;;;9.77;93.32
12536;BME280;6334;48.696;2.114;2024-02-04T10:49:52;101480.69;;;9.65;93.90
12536;BME280;6334;48.696;2.114;2024-02-04T10:52:23;101472.52;;;9.99;92.27
12536;BME280;6334;48.696;2.114;2024-02-04T10:54:53;101481.21;;;9.78;93.29
12536;BME280;6334;48.696;2.114;2024-02-04T10:57:29;101486.27;;;9.95;92.71
12536;BME280;6334;48.696;2.114;2024-02-04T11:00:00;101476.95;;;9.95;92.40
12536;BME280;6334;48.696;2.114;2024-02-04T11:02:30;101485.44;;;10.15;91.56
12536;BME280;6334;48.696;2.114;2024-02-04T11:05:02;101483.61;;;9.96;91.97
12536;BME280;6334;48.696;2.114;2024-02-04T11:10:05;101484.52;;;9.95;92.12
12536;BME280;6334;48.696;2.114;2024-02-04T11:12:35;101473.80;;;9.96;92.26
12536;BME280;6334;48.696;2.114;2024-02-04T11:15:06;101473.48;;;9.79;92.95
12536;BME280;6334;48.696;2.114;2024-02-04T11:18:02;101477.33;;;9.81;93.43
12536;BME280;6334;48.696;2.114;2024-02-04T11:23:35;101468.59;;;9.48;93.93
12536;BME280;6334;48.696;2.114;2024-02-04T11:26:02;101464.61;;;9.86;94.07
12536;BME280;6334;48.696;2.114;2024-02-04T11:28:32;101460.78;;;9.91;92.26
12536;BME280;6334;48.696;2.114;2024-02-04T11:31:01;101458.87;;;9.91;92.33
12536;BME280;6334;48.696;2.114;2024-02-04T11:33:32;101450.59;;;10.15;90.76
12536;BME280;6334;48.696;2.114;2024-02-04T11:36:04;101456.17;;;10.14;91.42
12536;BME280;6334;48.696;2.114;2024-02-04T11:38:37;101458.94;;;10.29;90.15
12536;BME280;6334;48.696;2.114;2024-02-04T11:41:07;101458.71;;;10.04;90.12
12536;BME280;6334;48.696;2.114;2024-02-04T11:43:36;101454.77;;;10.21;88.63
12536;BME280;6334;48.696;2.114;2024-02-04T11:46:06;101458.92;;;10.21;87.68
12536;BME280;6334;48.696;2.114;2024-02-04T11:48:35;101446.36;;;10.10;88.17
12536;BME280;6334;48.696;2.114;2024-02-04T11:51:05;101445.98;;;10.45;88.37
12536;BME280;6334;48.696;2.114;2024-02-04T11:53:35;101446.02;;;10.27;87.89
12536;BME280;6334;48.696;2.114;2024-02-04T11:56:05;101448.36;;;10.41;87.93
12536;BME280;6334;48.696;2.114;2024-02-04T11:58:40;101442.42;;;10.36;87.17
12536;BME280;6334;48.696;2.114;2024-02-04T12:01:10;101445.48;;;10.17;87.76
12536;BME280;6334;48.696;2.114;2024-02-04T12:03:39;101444.33;;;10.37;87.33
12536;BME280;6334;48.696;2.114;2024-02-04T12:06:09;101442.50;;;10.37;88.17
12536;BME280;6334;48.696;2.114;2024-02-04T12:09:17;101437.70;;;10.46;86.95
12536;BME280;6334;48.696;2.114;2024-02-04T12:11:47;101432.06;;;10.55;87.21
12536;BME280;6334;48.696;2.114;2024-02-04T12:14:17;101436.38;;;10.14;88.57
12536;BME280;6334;48.696;2.114;2024-02-04T12:16:46;101435.64;;;10.21;88.77
12536;BME280;6334;48.696;2.114;2024-02-04T12:19:17;101429.67;;;10.42;88.48
12536;BME280;6334;48.696;2.114;2024-02-04T12:21:47;101424.16;;;10.33;88.00
12536;BME280;6334;48.696;2.114;2024-02-04T12:24:18;101427.50;;;10.24;88.50
12536;BME280;6334;48.696;2.114;2024-02-04T12:26:48;101427.11;;;10.37;87.28
12536;BME280;6334;48.696;2.114;2024-02-04T12:29:18;101420.34;;;10.16;86.75
12536;BME280;6334;48.696;2.114;2024-02-04T12:31:57;101419.94;;;10.25;86.97
12536;BME280;6334;48.696;2.114;2024-02-04T12:34:19;101415.50;;;10.22;86.81
12536;BME280;6334;48.696;2.114;2024-02-04T12:36:56;101418.45;;;9.98;87.63
12536;BME280;6334;48.696;2.114;2024-02-04T12:39:19;101417.48;;;10.19;86.78
12536;BME280;6334;48.696;2.114;2024-02-04T12:41:58;101424.45;;;10.18;87.73
12536;BME280;6334;48.696;2.114;2024-02-04T12:44:28;101417.75;;;10.15;87.70
12536;BME280;6334;48.696;2.114;2024-02-04T12:46:59;101416.30;;;9.98;88.66
12536;BME280;6334;48.696;2.114;2024-02-04T12:49:28;101414.48;;;9.86;88.13
12536;BME280;6334;48.696;2.114;2024-02-04T12:52:04;101404.53;;;10.14;87.02
12536;BME280;6334;48.696;2.114;2024-02-04T12:54:41;101406.17;;;10.28;86.75
12536;BME280;6334;48.696;2.114;2024-02-04T12:57:10;101401.41;;;10.26;85.86
12536;BME280;6334;48.696;2.114;2024-02-04T12:59:44;101397.19;;;10.30;86.22
12536;BME280;6334;48.696;2.114;2024-02-04T13:02:15;101394.33;;;10.23;86.91
12536;BME280;6334;48.696;2.114;2024-02-04T13:04:45;101396.39;;;10.01;87.76
12536;BME280;6334;48.696;2.114;2024-02-04T13:07:15;101397.90;;;10.23;86.64
12536;BME280;6334;48.696;2.114;2024-02-04T13:09:46;101398.33;;;10.11;87.82
12536;BME280;6334;48.696;2.114;2024-02-04T13:12:17;101389.01;;;10.04;87.50
12536;BME280;6334;48.696;2.114;2024-02-04T13:14:48;101390.71;;;10.34;86.28
12536;BME280;6334;48.696;2.114;2024-02-04T13:17:18;101390.28;;;10.20;86.09
12536;BME280;6334;48.696;2.114;2024-02-04T13:19:50;101382.98;;;10.14;86.61
12536;BME280;6334;48.696;2.114;2024-02-04T13:22:21;101379.13;;;10.10;87.16
12536;BME280;6334;48.696;2.114;2024-02-04T13:24:51;101372.86;;;10.37;86.83
12536;BME280;6334;48.696;2.114;2024-02-04T13:27:22;101369.20;;;10.24;86.03
12536;BME280;6334;48.696;2.114;2024-02-04T13:29:53;101366.11;;;10.22;87.09
12536;BME280;6334;48.696;2.114;2024-02-04T13:32:23;101367.02;;;9.99;87.20
12536;BME280;6334;48.696;2.114;2024-02-04T13:34:53;101364.94;;;10.22;86.89
12536;BME280;6334;48.696;2.114;2024-02-04T13:37:23;101357.06;;;10.24;87.59
12536;BME280;6334;48.696;2.114;2024-02-04T13:39:53;101361.29;;;10.35;86.80